»·PEaware :: USC243 KLAS-KMRY

USC243 :: KLAS-KMRY

FLIGHT INFORMATION

Flight Status: Arrived
Operator: Unknown
More flights by this operator :: More flights under this callsign
Pilot: Andy P. (22680)
Aircraft: GATES LEARJET LEARJET 35/36
(LJ35)
More flights by this aircraft type
Origin: KLAS McCarran Intl
United States
Destination: KMRY Monterey Peninsula
United States
More flights between these airports :: More routes between these airports
Route: SHEAD1 KENNO Q162 NTELL PXN SNS
File this flight plan on PilotEdge
Remarks:
Altitude:
(Current/Filed)
36,000ft
Speed:
(Current/Filed)
465kts
Departed: 19-Jul-19 12:49 PM
Arrived: 19-Jul-19 02:06 PM
Distance/Time
Traveled:
326nm/1:17
Distance/Time
To Go:
Arrived

Flight Plot

Page will automatically refresh every two minutes.

Flight plan parsing failed; only flown route is shown


Map Options




Map Legend


Flown Route
Filed Route
Departure Airport
Arrival Airport
Navaid (VOR, NDB)
Fix

Horizontal Profiles

Position Reports

Time Latitude Longitude Heading Altitude Ground
Speed
19-Jul-19 12:21 36.082928 -115.125612 90 2184ft 0kts
19-Jul-19 12:22 36.082928 -115.125612 90 2184ft 0kts
19-Jul-19 12:23 36.082928 -115.125612 90 2184ft 0kts
19-Jul-19 12:24 36.082928 -115.125612 90 2184ft 0kts
19-Jul-19 12:25 36.082928 -115.125612 90 2184ft 0kts
19-Jul-19 12:26 36.082928 -115.125612 90 2184ft 0kts
19-Jul-19 12:27 36.082928 -115.125612 90 2184ft 0kts
19-Jul-19 12:28 36.082928 -115.125612 90 2184ft 0kts
19-Jul-19 12:29 36.082928 -115.125612 90 2184ft 0kts
19-Jul-19 12:30 36.082928 -115.125612 90 2184ft 0kts
19-Jul-19 12:31 36.082928 -115.125612 90 2184ft 0kts
19-Jul-19 12:32 36.082928 -115.125612 90 2184ft 0kts
19-Jul-19 12:33 36.082928 -115.125612 90 2184ft 0kts
19-Jul-19 12:34 36.082928 -115.125612 90 2184ft 0kts
19-Jul-19 12:35 36.082928 -115.125612 90 2184ft 0kts
19-Jul-19 12:36 36.082928 -115.125612 90 2184ft 0kts
19-Jul-19 12:37 36.082928 -115.125612 90 2184ft 0kts
19-Jul-19 12:38 36.082007 -115.126355 195 2184ft 1kts
19-Jul-19 12:39 36.078736 -115.126413 178 2184ft 13kts
19-Jul-19 12:46 36.077481 -115.161281 179 2184ft 0kts
19-Jul-19 12:47 36.077084 -115.161280 179 2184ft 13kts
19-Jul-19 12:48 36.076384 -115.132279 93 2602ft 183kts
19-Jul-19 12:49 36.077464 -115.059273 95 4867ft 242kts
19-Jul-19 12:50 36.075503 -114.983228 101 6726ft 211kts
19-Jul-19 12:51 36.035293 -114.934650 161 7488ft 233kts
19-Jul-19 12:52 35.973857 -114.907061 173 10939ft 274kts
19-Jul-19 12:53 35.901822 -114.969204 228 14647ft 367kts
19-Jul-19 12:54 35.829739 -115.065052 230 18744ft 407kts
19-Jul-19 12:55 35.829017 -115.207740 282 21579ft 445kts
19-Jul-19 12:56 35.845501 -115.351592 273 23063ft 394kts
19-Jul-19 12:57 35.856752 -115.490123 273 26373ft 419kts
19-Jul-19 12:58 35.869074 -115.640000 273 28974ft 453kts
19-Jul-19 12:59 35.881562 -115.793550 272 32422ft 443kts
19-Jul-19 13:00 35.893461 -115.942282 272 35502ft 429kts
19-Jul-19 13:01 35.961353 -116.065362 324 35983ft 479kts
19-Jul-19 13:02 36.066817 -116.168746 314 35974ft 479kts
19-Jul-19 13:03 36.156332 -116.271571 314 35973ft 471kts
19-Jul-19 13:04 36.251511 -116.381898 314 35971ft 466kts
19-Jul-19 13:05 36.345723 -116.491518 314 35973ft 462kts
19-Jul-19 13:06 36.439333 -116.600835 314 35974ft 459kts
19-Jul-19 13:07 36.531813 -116.709185 313 35990ft 457kts
19-Jul-19 13:09 36.635080 -116.802065 326 35994ft 464kts
19-Jul-19 13:10 36.732327 -116.875876 326 35997ft 473kts
19-Jul-19 13:11 36.833639 -116.953088 326 36004ft 479kts
19-Jul-19 13:12 36.947957 -117.040520 326 36014ft 484kts
19-Jul-19 13:13 37.063119 -117.128938 326 36023ft 485kts
19-Jul-19 13:14 37.177968 -117.217414 326 36026ft 485kts
19-Jul-19 13:15 37.291959 -117.307345 318 36033ft 482kts
19-Jul-19 13:16 37.333823 -117.451812 261 36042ft 445kts
19-Jul-19 13:17 37.328111 -117.606091 270 36030ft 440kts
19-Jul-19 13:18 37.338033 -117.746686 274 35969ft 451kts
19-Jul-19 13:19 37.349915 -117.905758 264 35970ft 459kts
19-Jul-19 13:20 37.335778 -118.065067 262 35961ft 459kts
19-Jul-19 13:21 37.321821 -118.224741 262 35956ft 460kts
19-Jul-19 13:22 37.307599 -118.383692 261 35952ft 457kts
19-Jul-19 13:23 37.293190 -118.542067 261 35975ft 455kts
19-Jul-19 13:24 37.278597 -118.699642 261 36033ft 452kts
19-Jul-19 13:25 37.236831 -118.846810 246 36076ft 448kts
19-Jul-19 13:25 37.198338 -118.967511 246 36116ft 447kts
19-Jul-19 13:27 37.144078 -119.137231 246 34780ft 448kts
19-Jul-19 13:28 37.097605 -119.281876 246 33015ft 454kts
19-Jul-19 13:29 37.049738 -119.430131 247 31158ft 461kts
19-Jul-19 13:29 37.009441 -119.554362 247 29606ft 464kts
19-Jul-19 13:30 36.960729 -119.703822 247 27728ft 465kts
19-Jul-19 13:32 36.904305 -119.879566 250 25534ft 467kts
19-Jul-19 13:32 36.875291 -120.009293 255 24049ft 462kts
19-Jul-19 13:33 36.844141 -120.161975 255 22378ft 456kts
19-Jul-19 13:34 36.812570 -120.315076 255 20272ft 448kts
19-Jul-19 13:36 36.777417 -120.484194 254 18258ft 420kts
19-Jul-19 13:36 36.753076 -120.600517 254 16863ft 411kts
19-Jul-19 13:37 36.726504 -120.737894 259 15273ft 405kts
19-Jul-19 13:38 36.710955 -120.874215 260 14265ft 394kts
19-Jul-19 13:39 36.694635 -121.008192 260 13215ft 368kts
19-Jul-19 13:40 36.680578 -121.120428 259 11384ft 297kts
19-Jul-19 13:41 36.668267 -121.217439 259 8998ft 276kts
19-Jul-19 13:42 36.656784 -121.307332 259 7040ft 246kts
19-Jul-19 13:43 36.646429 -121.387962 259 5832ft 226kts
19-Jul-19 13:44 36.636954 -121.461575 259 5989ft 225kts
19-Jul-19 13:45 36.626331 -121.538494 261 5022ft 212kts
19-Jul-19 13:46 36.618937 -121.604157 258 5020ft 182kts
19-Jul-19 13:47 36.610004 -121.668754 259 3959ft 192kts
19-Jul-19 13:48 36.634872 -121.722454 307 3744ft 192kts
19-Jul-19 13:49 36.667511 -121.773759 307 3090ft 170kts
19-Jul-19 13:50 36.710365 -121.821730 352 4951ft 273kts
19-Jul-19 13:51 36.753679 -121.770818 97 6444ft 218kts
19-Jul-19 13:52 36.742174 -121.694092 103 7002ft 243kts
19-Jul-19 13:53 36.728440 -121.612958 103 6994ft 236kts
19-Jul-19 13:54 36.715167 -121.535012 103 6987ft 221kts
19-Jul-19 13:55 36.702085 -121.458433 103 6264ft 235kts
19-Jul-19 13:56 36.671761 -121.392387 170 5241ft 227kts
19-Jul-19 13:57 36.631839 -121.437292 246 5103ft 204kts
19-Jul-19 13:58 36.605521 -121.504924 243 5111ft 225kts
19-Jul-19 13:59 36.579589 -121.575256 247 5049ft 222kts
19-Jul-19 14:00 36.566268 -121.652035 283 3773ft 238kts
19-Jul-19 14:01 36.571214 -121.722558 275 2591ft 157kts
19-Jul-19 14:02 36.574615 -121.767302 269 1825ft 121kts
19-Jul-19 14:03 36.578220 -121.807957 269 793ft 117kts
19-Jul-19 14:04 36.586966 -121.844235 287 208ft 76kts
19-Jul-19 14:05 36.588769 -121.852035 293 208ft 16kts
19-Jul-19 14:06 36.588977 -121.858046 261 208ft 18kts
19-Jul-19 14:07 36.589257 -121.858559 345 208ft 0kts

Navigation Log

Ident Type
Flight plan parsing failed, navigation log unavailable